createdAt,value
2023-04-21T00:01:42.996Z,10.99
2023-04-21T00:07:44.904Z,11.04
2023-04-21T00:13:46.868Z,11.58
2023-04-21T00:19:48.775Z,11.25
2023-04-21T00:25:53.738Z,11.41
2023-04-21T00:31:55.758Z,11.44
2023-04-21T00:37:57.850Z,11.37
2023-04-21T00:44:04.091Z,11.37
2023-04-21T00:50:06.533Z,11.42
2023-04-21T00:56:09.076Z,11.25
2023-04-21T01:02:11.288Z,10.91
2023-04-21T01:08:14.144Z,11.01
2023-04-21T01:14:16.021Z,10.76
2023-04-21T01:20:17.932Z,10.87
2023-04-21T01:26:21.719Z,10.69
2023-04-21T01:32:27.854Z,10.54
2023-04-21T01:38:29.992Z,10.64
2023-04-21T01:44:32.285Z,10.27
2023-04-21T01:50:34.294Z,10.15
2023-04-21T01:56:36.211Z,10.04
2023-04-21T02:02:38.261Z,9.60
2023-04-21T02:08:40.325Z,9.51
2023-04-21T02:14:42.284Z,9.43
2023-04-21T02:20:44.571Z,9.50
2023-04-21T02:26:46.470Z,9.72
2023-04-21T02:32:48.382Z,10.02
2023-04-21T02:38:51.139Z,9.75
2023-04-21T02:44:53.077Z,9.65
2023-04-21T02:50:54.949Z,9.59
2023-04-21T02:56:56.971Z,9.41
2023-04-21T03:02:59.339Z,9.10
2023-04-21T03:09:01.416Z,9.30
2023-04-21T03:15:04.137Z,9.42
2023-04-21T03:21:06.174Z,9.09
2023-04-21T03:27:09.830Z,8.97
2023-04-21T03:33:12.858Z,8.80
2023-04-21T03:39:19.987Z,8.41
2023-04-21T03:45:23.817Z,8.08
2023-04-21T03:51:27.078Z,7.91
2023-04-21T03:57:28.981Z,7.86
2023-04-21T04:03:31.092Z,7.83
2023-04-21T04:09:33.356Z,7.91
2023-04-21T04:15:35.287Z,7.88
2023-04-21T04:21:37.643Z,7.55
2023-04-21T04:27:39.566Z,7.49
2023-04-21T04:33:42.705Z,7.53
2023-04-21T04:39:44.604Z,7.63
2023-04-21T04:45:46.489Z,7.87
2023-04-21T04:51:48.447Z,8.31
2023-04-21T04:57:50.406Z,8.57
2023-04-21T05:03:52.381Z,8.92
2023-04-21T05:09:54.600Z,9.22
2023-04-21T05:16:03.706Z,9.25
2023-04-21T05:22:08.652Z,9.53
2023-04-21T05:28:10.542Z,9.70
2023-04-21T05:34:12.437Z,9.89
2023-04-21T05:40:14.398Z,10.02
2023-04-21T05:46:16.361Z,10.14
2023-04-21T05:52:18.272Z,10.43
2023-04-21T05:58:20.170Z,10.78
2023-04-21T06:04:22.292Z,11.02
2023-04-21T06:10:24.724Z,11.26
2023-04-21T06:16:27.179Z,11.67
2023-04-21T06:22:29.206Z,11.92
2023-04-21T06:28:36.272Z,12.30
2023-04-21T06:34:39.380Z,12.81
2023-04-21T06:40:41.436Z,13.35
2023-04-21T06:46:43.481Z,13.78
2023-04-21T06:52:45.389Z,16.30
2023-04-21T06:58:47.275Z,19.50
2023-04-21T07:04:49.307Z,18.97
2023-04-21T07:10:51.488Z,17.48
2023-04-21T07:16:54.990Z,17.02
2023-04-21T07:22:56.964Z,17.38
2023-04-21T07:28:58.851Z,17.49
2023-04-21T07:35:02.091Z,17.90
2023-04-21T07:41:04.960Z,18.47
2023-04-21T07:47:06.906Z,18.64
2023-04-21T07:53:08.825Z,18.80
2023-04-21T07:59:10.982Z,19.15
2023-04-21T08:05:13.203Z,19.38
2023-04-21T08:11:15.338Z,19.57
2023-04-21T08:17:17.706Z,19.97
2023-04-21T08:23:20.041Z,20.31
2023-04-21T08:29:21.988Z,20.42
2023-04-21T08:35:24.518Z,20.65
2023-04-21T08:41:27.195Z,20.72
2023-04-21T08:47:29.810Z,20.62
2023-04-21T08:53:31.868Z,21.07
2023-04-21T08:59:33.786Z,21.52
2023-04-21T09:05:40.653Z,22.15
2023-04-21T09:11:44.982Z,22.09
2023-04-21T09:17:46.996Z,22.76
2023-04-21T09:23:52.095Z,23.06
2023-04-21T09:29:54.117Z,23.11
2023-04-21T09:35:56.045Z,23.59
2023-04-21T09:41:59.019Z,24.00
2023-04-21T09:48:02.436Z,24.36
2023-04-21T09:54:29.158Z,25.23
2023-04-21T10:00:32.440Z,25.46
2023-04-21T10:06:34.762Z,25.25
2023-04-21T10:12:36.706Z,26.13
2023-04-21T10:18:46.156Z,26.57
2023-04-21T10:24:48.282Z,27.71
2023-04-21T10:30:50.244Z,26.94
2023-04-21T10:36:54.800Z,27.81
2023-04-21T10:42:56.892Z,28.85
2023-04-21T10:49:13.311Z,29.67
2023-04-21T10:55:17.027Z,29.70
2023-04-21T11:01:19.234Z,29.63
2023-04-21T11:07:25.115Z,29.82
2023-04-21T11:13:34.816Z,30.06
2023-04-21T11:19:38.850Z,31.23
2023-04-21T11:25:40.937Z,31.07
2023-04-21T11:31:47.935Z,32.70
2023-04-21T11:37:54.261Z,32.11
2023-04-21T11:43:56.201Z,31.89
2023-04-21T11:50:01.511Z,32.97
2023-04-21T11:56:03.457Z,31.73
2023-04-21T12:02:05.454Z,31.20
2023-04-21T12:08:16.118Z,31.51
2023-04-21T12:14:26.926Z,31.57
2023-04-21T12:20:30.215Z,33.68
2023-04-21T12:26:32.428Z,31.86
2023-04-21T12:32:34.410Z,32.78
2023-04-21T12:38:36.463Z,33.83
2023-04-21T12:44:40.189Z,32.35
2023-04-21T12:50:42.099Z,33.74
2023-04-21T12:56:44.224Z,33.92
2023-04-21T13:02:46.697Z,33.25
2023-04-21T13:08:48.811Z,34.27
2023-04-21T13:14:50.805Z,34.24
2023-04-21T13:20:52.711Z,34.57
2023-04-21T13:26:54.665Z,34.04
2023-04-21T13:32:56.623Z,35.17
2023-04-21T13:39:00.692Z,34.27
2023-04-21T13:45:03.268Z,33.81
2023-04-21T13:51:05.504Z,33.62
2023-04-21T13:57:07.535Z,34.05
2023-04-21T14:03:11.360Z,32.55
2023-04-21T14:09:13.511Z,32.50
2023-04-21T14:15:15.489Z,32.11
2023-04-21T14:21:17.385Z,32.56
2023-04-21T14:27:19.415Z,31.15
2023-04-21T14:33:21.370Z,28.25
2023-04-21T14:39:23.769Z,28.81
2023-04-21T14:45:25.861Z,27.13
2023-04-21T14:51:28.152Z,26.39
2023-04-21T14:57:30.086Z,25.13
2023-04-21T15:03:32.121Z,26.08
2023-04-21T15:09:35.969Z,25.36
2023-04-21T15:15:38.239Z,26.50
2023-04-21T15:21:40.853Z,27.62
2023-04-21T15:27:42.810Z,30.62
2023-04-21T15:33:44.735Z,32.36
2023-04-21T15:39:46.763Z,32.11
2023-04-21T15:45:48.722Z,32.97
2023-04-21T15:51:50.810Z,32.78
2023-04-21T15:57:52.736Z,34.18
2023-04-21T16:03:54.788Z,32.29
2023-04-21T16:09:56.981Z,32.01
2023-04-21T16:15:59.164Z,30.43
2023-04-21T16:22:03.247Z,31.32
2023-04-21T16:28:06.577Z,31.31
2023-04-21T16:34:08.542Z,30.75
2023-04-21T16:40:11.479Z,30.07
2023-04-21T16:46:13.838Z,30.49
2023-04-21T16:52:15.850Z,30.86
2023-04-21T16:58:17.874Z,30.56
2023-04-21T17:04:19.811Z,30.77
2023-04-21T17:10:22.043Z,29.50
2023-04-21T17:16:24.134Z,28.53
2023-04-21T17:22:26.202Z,27.79
2023-04-21T17:28:28.142Z,27.16
2023-04-21T17:34:31.460Z,27.23
2023-04-21T17:40:33.502Z,26.09
2023-04-21T17:46:36.896Z,25.16
2023-04-21T17:52:39.921Z,24.29
2023-04-21T17:58:42.398Z,22.68
2023-04-21T18:04:44.802Z,22.12
2023-04-21T18:10:47.156Z,21.38
2023-04-21T18:16:49.025Z,20.49
2023-04-21T18:22:51.887Z,19.51
2023-04-21T18:28:58.068Z,18.89
2023-04-21T18:35:00.823Z,18.63
2023-04-21T18:41:02.869Z,18.26
2023-04-21T18:47:04.905Z,18.01
2023-04-21T18:53:08.530Z,17.89
2023-04-21T18:59:10.501Z,17.66
2023-04-21T19:05:12.374Z,17.64
2023-04-21T19:11:17.732Z,17.39
2023-04-21T19:17:19.748Z,17.35
2023-04-21T19:23:26.662Z,17.28
2023-04-21T19:29:28.788Z,17.52
2023-04-21T19:35:30.818Z,17.05
2023-04-21T19:41:32.762Z,17.13
2023-04-21T19:47:37.914Z,16.91
2023-04-21T19:53:39.835Z,16.79
2023-04-21T19:59:41.763Z,16.86
2023-04-21T20:05:45.601Z,17.03
2023-04-21T20:11:47.609Z,16.68
2023-04-21T20:17:49.962Z,16.32
2023-04-21T20:23:51.897Z,16.26
2023-04-21T20:29:53.796Z,16.02
2023-04-21T20:35:56.938Z,15.82
2023-04-21T20:42:12.634Z,15.53
2023-04-21T20:48:15.741Z,15.37
2023-04-21T20:54:17.664Z,15.07
2023-04-21T21:00:19.826Z,14.68
2023-04-21T21:06:21.766Z,14.42
2023-04-21T21:12:23.755Z,14.38
2023-04-21T21:18:25.780Z,14.41
2023-04-21T21:24:28.821Z,14.46
2023-04-21T21:30:30.771Z,14.56
2023-04-21T21:36:33.226Z,14.47
2023-04-21T21:42:35.354Z,14.56
2023-04-21T21:48:37.337Z,14.92
2023-04-21T21:54:39.251Z,14.94
2023-04-21T22:00:42.466Z,14.86
2023-04-21T22:06:45.411Z,14.58
2023-04-21T22:12:47.327Z,14.18
2023-04-21T22:18:49.402Z,13.74
2023-04-21T22:24:51.422Z,13.33
2023-04-21T22:30:53.385Z,13.41
2023-04-21T22:36:55.567Z,13.48
2023-04-21T22:42:57.941Z,13.34
2023-04-21T22:49:02.431Z,13.35
2023-04-21T22:55:05.305Z,13.18
2023-04-21T23:01:07.439Z,13.12
2023-04-21T23:07:09.702Z,12.95
2023-04-21T23:13:11.586Z,12.88
2023-04-21T23:19:13.480Z,12.84
2023-04-21T23:25:15.590Z,12.46
2023-04-21T23:31:17.642Z,12.46
2023-04-21T23:37:19.634Z,12.56
2023-04-21T23:43:21.650Z,12.75
2023-04-21T23:49:23.604Z,12.69
2023-04-21T23:55:25.979Z,12.46
